createdAt,value
2024-02-20T00:00:46.581Z,1.70
2024-02-20T00:03:15.197Z,1.85
2024-02-20T00:05:43.865Z,1.52
2024-02-20T00:08:12.488Z,1.60
2024-02-20T00:10:41.224Z,1.48
2024-02-20T00:13:10.041Z,2.00
2024-02-20T00:15:38.642Z,1.50
2024-02-20T00:18:07.608Z,1.75
2024-02-20T00:20:36.295Z,1.90
2024-02-20T00:23:04.879Z,1.90
2024-02-20T00:25:33.590Z,1.70
2024-02-20T00:28:02.295Z,1.63
2024-02-20T00:30:30.803Z,2.08
2024-02-20T00:32:59.408Z,1.52
2024-02-20T00:35:28.029Z,1.67
2024-02-20T00:37:56.642Z,1.50
2024-02-20T00:40:25.328Z,1.52
2024-02-20T00:42:53.928Z,1.40
2024-02-20T00:45:22.531Z,1.73
2024-02-20T00:47:51.213Z,1.70
2024-02-20T00:50:20.063Z,2.50
2024-02-20T00:52:48.641Z,2.40
2024-02-20T00:55:17.295Z,1.90
2024-02-20T00:57:45.916Z,2.28
2024-02-20T01:00:15.916Z,2.10
2024-02-20T01:02:44.725Z,2.20
2024-02-20T01:05:13.286Z,1.90
2024-02-20T01:07:41.954Z,1.77
2024-02-20T01:10:11.250Z,1.88
2024-02-20T01:12:40.580Z,2.17
2024-02-20T01:15:09.794Z,1.70
2024-02-20T01:17:38.497Z,1.83
2024-02-20T01:20:08.747Z,1.88
2024-02-20T01:22:37.440Z,1.98
2024-02-20T01:25:07.272Z,1.90
2024-02-20T01:27:35.836Z,2.38
2024-02-20T01:30:04.689Z,2.60
2024-02-20T01:32:33.377Z,2.63
2024-02-20T01:35:02.130Z,2.40
2024-02-20T01:37:32.125Z,2.60
2024-02-20T01:40:00.883Z,2.42
2024-02-20T01:42:29.947Z,2.60
2024-02-20T01:44:58.514Z,2.63
2024-02-20T01:47:27.300Z,2.40
2024-02-20T01:49:56.984Z,2.50
2024-02-20T01:52:25.970Z,2.90
2024-02-20T01:54:54.868Z,2.28
2024-02-20T01:57:23.519Z,2.70
2024-02-20T01:59:52.174Z,3.90
2024-02-20T02:02:22.650Z,3.40
2024-02-20T02:04:51.428Z,3.20
2024-02-20T02:07:20.149Z,3.20
2024-02-20T02:09:48.908Z,3.55
2024-02-20T02:12:17.518Z,2.72
2024-02-20T02:14:50.204Z,2.83
2024-02-20T02:17:19.021Z,2.90
2024-02-20T02:19:47.702Z,2.97
2024-02-20T02:22:16.308Z,3.03
2024-02-20T02:24:45.802Z,3.22
2024-02-20T02:27:14.391Z,3.30
2024-02-20T02:29:43.721Z,2.53
2024-02-20T02:32:12.383Z,2.65
2024-02-20T02:34:40.810Z,3.03
2024-02-20T02:37:09.487Z,3.25
2024-02-20T02:39:38.268Z,3.38
2024-02-20T02:42:07.668Z,3.05
2024-02-20T02:44:36.280Z,3.95
2024-02-20T02:47:06.046Z,3.40
2024-02-20T02:49:34.835Z,3.15
2024-02-20T02:52:03.610Z,3.53
2024-02-20T02:54:32.213Z,3.05
2024-02-20T02:57:00.799Z,3.35
2024-02-20T02:59:29.406Z,3.17
2024-02-20T03:01:57.371Z,3.85
2024-02-20T03:04:26.080Z,3.75
2024-02-20T03:06:55.933Z,3.88
2024-02-20T03:09:24.578Z,3.13
2024-02-20T03:11:53.380Z,3.38
2024-02-20T03:14:24.396Z,3.78
2024-02-20T03:16:53.046Z,3.65
2024-02-20T03:19:21.880Z,3.13
2024-02-20T03:21:50.664Z,3.10
2024-02-20T03:24:19.315Z,3.67
2024-02-20T03:26:47.900Z,3.03
2024-02-20T03:29:16.530Z,3.97
2024-02-20T03:31:45.237Z,3.80
2024-02-20T03:34:14.022Z,3.67
2024-02-20T03:36:42.569Z,3.95
2024-02-20T03:39:11.091Z,4.30
2024-02-20T03:41:39.727Z,3.72
2024-02-20T03:44:08.310Z,3.35
2024-02-20T03:46:37.063Z,3.65
2024-02-20T03:49:05.960Z,3.50
2024-02-20T03:51:34.618Z,2.92
2024-02-20T03:54:03.277Z,3.92
2024-02-20T03:56:31.883Z,3.20
2024-02-20T03:59:00.494Z,3.05
2024-02-20T04:01:29.078Z,3.33
2024-02-20T04:03:57.836Z,2.85
2024-02-20T04:06:26.591Z,3.47
2024-02-20T04:08:55.449Z,3.28
2024-02-20T04:11:24.151Z,2.58
2024-02-20T04:13:53.369Z,3.45
2024-02-20T04:16:22.036Z,3.03
2024-02-20T04:18:50.677Z,3.08
2024-02-20T04:21:19.287Z,3.15
2024-02-20T04:23:47.958Z,2.60
2024-02-20T04:26:16.468Z,2.72
2024-02-20T04:28:45.106Z,2.38
2024-02-20T04:31:13.885Z,2.75
2024-02-20T04:33:42.524Z,2.40
2024-02-20T04:36:11.961Z,2.90
2024-02-20T04:38:43.302Z,3.13
2024-02-20T04:41:12.730Z,2.85
2024-02-20T04:43:41.496Z,2.42
2024-02-20T04:46:10.093Z,3.30
2024-02-20T04:48:39.406Z,2.30
2024-02-20T04:51:08.113Z,3.05
2024-02-20T04:53:36.175Z,2.67
2024-02-20T04:56:04.752Z,2.35
2024-02-20T04:58:33.560Z,2.15
2024-02-20T05:01:02.445Z,3.20
2024-02-20T05:03:31.171Z,2.45
2024-02-20T05:05:59.899Z,2.33
2024-02-20T05:08:28.493Z,3.10
2024-02-20T05:10:57.234Z,2.80
2024-02-20T05:13:25.884Z,2.40
2024-02-20T05:15:54.643Z,2.88
2024-02-20T05:18:23.223Z,2.72
2024-02-20T05:20:52.458Z,2.22
2024-02-20T05:23:20.861Z,2.63
2024-02-20T05:25:49.449Z,2.45
2024-02-20T05:28:18.125Z,2.47
2024-02-20T05:30:47.320Z,3.17
2024-02-20T05:33:15.959Z,1.95
2024-02-20T05:35:47.094Z,2.22
2024-02-20T05:38:16.547Z,2.20
2024-02-20T05:40:45.410Z,2.45
2024-02-20T05:43:14.017Z,2.65
2024-02-20T05:45:42.002Z,1.60
2024-02-20T05:48:13.271Z,2.15
2024-02-20T05:50:42.289Z,2.47
2024-02-20T05:53:11.690Z,2.10
2024-02-20T05:55:40.356Z,2.30
2024-02-20T05:58:08.991Z,1.73
2024-02-20T06:00:37.615Z,1.60
2024-02-20T06:03:06.232Z,2.42
2024-02-20T06:05:35.485Z,1.70
2024-02-20T06:08:05.194Z,2.10
2024-02-20T06:10:33.946Z,1.67
2024-02-20T06:13:02.590Z,2.03
2024-02-20T06:15:31.191Z,2.60
2024-02-20T06:17:59.941Z,1.95
2024-02-20T06:20:28.584Z,2.00
2024-02-20T06:22:58.465Z,1.80
2024-02-20T06:25:28.784Z,2.45
2024-02-20T06:27:58.001Z,1.98
2024-02-20T06:30:26.917Z,2.60
2024-02-20T06:32:55.581Z,2.03
2024-02-20T06:35:24.269Z,1.95
2024-02-20T06:37:53.081Z,1.88
2024-02-20T06:40:21.749Z,2.13
2024-02-20T06:42:50.307Z,1.88
2024-02-20T06:45:19.043Z,1.60
2024-02-20T06:47:50.058Z,2.13
2024-02-20T06:50:19.351Z,1.83
2024-02-20T06:52:48.350Z,1.98
2024-02-20T06:55:17.343Z,1.77
2024-02-20T06:57:46.261Z,1.98
2024-02-20T07:00:17.246Z,1.70
2024-02-20T07:02:46.918Z,1.70
2024-02-20T07:05:16.223Z,2.05
2024-02-20T07:07:47.204Z,2.10
2024-02-20T07:10:16.380Z,2.20
2024-02-20T07:12:45.018Z,2.13
2024-02-20T07:15:13.884Z,1.92
2024-02-20T07:17:43.316Z,2.05
2024-02-20T07:20:14.158Z,1.75
2024-02-20T07:22:42.821Z,1.88
2024-02-20T07:25:12.192Z,2.42
2024-02-20T07:27:40.831Z,2.20
2024-02-20T07:30:12.710Z,2.20
2024-02-20T07:32:44.195Z,2.08
2024-02-20T07:35:14.719Z,1.98
2024-02-20T07:37:44.165Z,2.10
2024-02-20T07:40:13.843Z,1.98
2024-02-20T07:42:42.819Z,1.92
2024-02-20T07:45:12.004Z,1.33
2024-02-20T07:47:40.760Z,2.03
2024-02-20T07:50:09.869Z,1.60
2024-02-20T07:52:38.791Z,1.95
2024-02-20T07:55:10.210Z,2.08
2024-02-20T07:57:38.865Z,1.75
2024-02-20T08:00:08.033Z,1.80
2024-02-20T08:02:36.687Z,2.47
2024-02-20T08:05:05.528Z,1.67
2024-02-20T08:07:35.308Z,1.95
2024-02-20T08:10:04.726Z,1.30
2024-02-20T08:12:33.316Z,1.77
2024-02-20T08:15:01.890Z,2.40
2024-02-20T08:17:31.211Z,1.35
2024-02-20T08:20:00.379Z,2.35
2024-02-20T08:22:28.989Z,2.03
2024-02-20T08:24:57.767Z,2.90
2024-02-20T08:27:27.012Z,1.98
2024-02-20T08:29:57.348Z,1.85
2024-02-20T08:32:25.969Z,1.65
2024-02-20T08:34:54.950Z,2.05
2024-02-20T08:37:23.721Z,2.50
2024-02-20T08:39:53.741Z,1.73
2024-02-20T08:42:23.425Z,1.83
2024-02-20T08:44:52.084Z,2.05
2024-02-20T08:47:20.824Z,1.90
2024-02-20T08:49:53.118Z,1.70
2024-02-20T08:52:21.944Z,1.58
2024-02-20T08:54:50.554Z,1.88
2024-02-20T08:57:19.177Z,1.50
2024-02-20T08:59:49.646Z,1.92
2024-02-20T09:02:18.820Z,2.70
2024-02-20T09:04:47.542Z,1.90
2024-02-20T09:07:16.269Z,1.92
2024-02-20T09:09:44.855Z,2.83
2024-02-20T09:12:13.569Z,1.63
2024-02-20T09:14:42.236Z,2.03
2024-02-20T09:17:11.063Z,1.75
2024-02-20T09:19:40.994Z,1.65
2024-02-20T09:22:12.738Z,1.88
2024-02-20T09:24:43.143Z,1.98
2024-02-20T09:27:14.044Z,2.15
2024-02-20T09:29:42.751Z,2.08
2024-02-20T09:32:10.916Z,1.90
2024-02-20T09:34:39.625Z,1.75
2024-02-20T09:37:08.306Z,1.65
2024-02-20T09:39:36.832Z,1.63
2024-02-20T09:42:11.396Z,1.77
2024-02-20T09:44:43.765Z,1.88
2024-02-20T09:47:13.945Z,1.80
2024-02-20T09:49:43.239Z,1.83
2024-02-20T09:52:12.905Z,2.35
2024-02-20T09:54:43.321Z,1.90
2024-02-20T09:57:12.738Z,2.05
2024-02-20T09:59:41.344Z,1.70
2024-02-20T10:02:19.609Z,2.28
2024-02-20T10:04:49.398Z,2.42
2024-02-20T10:07:21.853Z,2.10
2024-02-20T10:09:51.313Z,1.45
2024-02-20T10:12:25.174Z,2.55
2024-02-20T10:14:53.889Z,2.10
2024-02-20T10:17:24.042Z,2.13
2024-02-20T10:19:52.823Z,1.60
2024-02-20T10:22:28.368Z,1.63
2024-02-20T10:25:09.768Z,2.80
2024-02-20T10:27:38.626Z,1.52
2024-02-20T10:30:10.053Z,2.55
2024-02-20T10:32:40.347Z,2.22
2024-02-20T10:35:12.264Z,1.77
2024-02-20T10:37:41.285Z,2.17
2024-02-20T10:40:22.696Z,1.92
2024-02-20T10:43:00.608Z,2.00
2024-02-20T10:45:30.541Z,1.58
2024-02-20T10:48:01.170Z,2.20
2024-02-20T10:50:32.445Z,1.83
2024-02-20T10:53:03.250Z,1.48
2024-02-20T10:55:34.494Z,1.98
2024-02-20T10:58:06.801Z,1.83
2024-02-20T11:00:39.536Z,1.98
2024-02-20T11:03:10.916Z,2.10
2024-02-20T11:05:40.219Z,1.65
2024-02-20T11:08:13.756Z,2.60
2024-02-20T11:10:43.001Z,2.30
2024-02-20T11:13:16.587Z,1.45
2024-02-20T11:18:19.282Z,1.48
2024-02-20T11:20:48.101Z,1.05
2024-02-20T11:23:16.700Z,1.27
2024-02-20T11:25:45.596Z,1.23
2024-02-20T11:28:18.750Z,1.70
2024-02-20T11:30:50.404Z,1.92
2024-02-20T11:33:21.257Z,1.50
2024-02-20T11:35:51.490Z,1.83
2024-02-20T11:38:23.569Z,1.77
2024-02-20T11:40:52.479Z,1.33
2024-02-20T11:43:24.617Z,1.55
2024-02-20T11:46:01.506Z,1.77
2024-02-20T11:48:31.325Z,1.58
2024-02-20T11:51:00.118Z,3.70
2024-02-20T11:53:29.005Z,2.13
2024-02-20T11:55:58.204Z,1.38
2024-02-20T11:58:29.318Z,2.25
2024-02-20T12:01:08.289Z,1.58
2024-02-20T12:03:39.243Z,2.45
2024-02-20T12:06:11.814Z,1.92
2024-02-20T12:08:45.352Z,1.52
2024-02-20T12:11:19.651Z,2.40
2024-02-20T12:13:54.230Z,1.73
2024-02-20T12:16:25.486Z,1.85
2024-02-20T12:18:56.055Z,1.85
2024-02-20T12:21:30.648Z,1.60
2024-02-20T12:24:00.859Z,1.73
2024-02-20T12:26:30.239Z,1.70
2024-02-20T12:28:58.914Z,2.60
2024-02-20T12:31:29.395Z,1.70
2024-02-20T12:33:58.184Z,2.22
2024-02-20T12:36:29.396Z,1.77
2024-02-20T12:38:59.070Z,1.45
2024-02-20T12:41:27.709Z,1.75
2024-02-20T12:43:56.417Z,2.10
2024-02-20T12:46:25.120Z,1.75
2024-02-20T12:48:57.363Z,1.77
2024-02-20T12:51:29.816Z,1.88
2024-02-20T12:53:58.617Z,1.95
2024-02-20T12:56:28.166Z,2.03
2024-02-20T12:58:56.920Z,2.38
2024-02-20T13:01:25.678Z,2.10
2024-02-20T13:03:53.782Z,2.70
2024-02-20T13:06:22.342Z,1.30
2024-02-20T13:08:51.055Z,1.90
2024-02-20T13:11:20.662Z,2.28
2024-02-20T13:13:51.047Z,1.50
2024-02-20T13:16:19.837Z,2.13
2024-02-20T13:18:49.374Z,1.67
2024-02-20T13:21:18.770Z,2.03
2024-02-20T13:23:47.416Z,1.40
2024-02-20T13:26:16.022Z,2.13
2024-02-20T13:28:44.697Z,2.08
2024-02-20T13:31:13.769Z,2.17
2024-02-20T13:33:42.529Z,2.05
2024-02-20T13:36:11.365Z,2.40
2024-02-20T13:38:42.788Z,2.28
2024-02-20T13:41:12.246Z,2.50
2024-02-20T13:43:41.646Z,1.98
2024-02-20T13:46:11.334Z,1.88
2024-02-20T13:48:39.975Z,4.15
2024-02-20T13:51:08.566Z,2.08
2024-02-20T13:53:37.164Z,2.00
2024-02-20T13:56:06.259Z,1.77
2024-02-20T13:58:34.883Z,1.80
2024-02-20T14:01:03.897Z,2.10
2024-02-20T14:03:33.093Z,1.80
2024-02-20T14:06:01.267Z,2.03
2024-02-20T14:08:29.973Z,1.95
2024-02-20T14:10:58.754Z,1.70
2024-02-20T14:13:27.774Z,1.80
2024-02-20T14:15:56.974Z,2.83
2024-02-20T14:18:25.784Z,1.88
2024-02-20T14:20:59.624Z,1.45
2024-02-20T14:23:28.212Z,2.22
2024-02-20T14:25:56.921Z,2.65
2024-02-20T14:28:25.684Z,2.55
2024-02-20T14:31:02.185Z,2.30
2024-02-20T14:33:32.422Z,1.85
2024-02-20T14:36:02.904Z,1.95
2024-02-20T14:38:31.585Z,2.05
2024-02-20T14:41:00.299Z,2.03
2024-02-20T14:43:29.033Z,2.45
2024-02-20T14:45:58.338Z,2.20
2024-02-20T14:48:27.282Z,2.03
2024-02-20T14:50:55.940Z,2.08
2024-02-20T14:53:24.547Z,2.58
2024-02-20T14:55:53.326Z,2.38
2024-02-20T14:58:22.040Z,2.10
2024-02-20T15:00:51.312Z,1.85
2024-02-20T15:03:22.110Z,2.15
2024-02-20T15:05:51.507Z,2.00
2024-02-20T15:08:21.771Z,4.75
2024-02-20T15:10:51.424Z,2.42
2024-02-20T15:13:20.416Z,2.03
2024-02-20T15:15:51.768Z,2.33
2024-02-20T15:18:20.625Z,2.30
2024-02-20T15:20:49.265Z,2.28
2024-02-20T15:23:19.224Z,1.90
2024-02-20T15:25:48.489Z,1.90
2024-02-20T15:28:17.246Z,2.95
2024-02-20T15:30:45.897Z,1.88
2024-02-20T15:33:14.800Z,2.70
2024-02-20T15:35:43.483Z,2.92
2024-02-20T15:38:13.455Z,3.63
2024-02-20T15:40:46.148Z,1.70
2024-02-20T15:43:19.853Z,1.33
2024-02-20T15:45:50.009Z,1.52
2024-02-20T15:48:19.456Z,2.03
2024-02-20T15:50:50.253Z,2.65
2024-02-20T15:53:19.952Z,2.17
2024-02-20T15:55:48.730Z,2.25
2024-02-20T15:58:18.058Z,2.60
2024-02-20T16:00:47.237Z,3.08
2024-02-20T16:03:15.227Z,2.10
2024-02-20T16:05:43.952Z,2.30
2024-02-20T16:08:17.131Z,2.40
2024-02-20T16:10:48.844Z,2.38
2024-02-20T16:13:17.432Z,3.08
2024-02-20T16:15:47.737Z,1.92
2024-02-20T16:18:16.523Z,2.05
2024-02-20T16:20:45.559Z,3.17
2024-02-20T16:23:15.003Z,2.72
2024-02-20T16:25:45.269Z,3.20
2024-02-20T16:28:14.071Z,2.33
2024-02-20T16:30:42.750Z,2.33
2024-02-20T16:33:11.373Z,2.20
2024-02-20T16:35:39.968Z,2.33
2024-02-20T16:38:08.798Z,3.17
2024-02-20T16:40:37.545Z,2.58
2024-02-20T16:43:06.352Z,2.10
2024-02-20T16:45:35.145Z,2.60
2024-02-20T16:48:03.784Z,2.92
2024-02-20T16:50:34.557Z,2.70
2024-02-20T16:53:05.509Z,3.05
2024-02-20T16:55:34.735Z,2.97
2024-02-20T16:58:03.384Z,3.28
2024-02-20T17:00:32.407Z,3.40
2024-02-20T17:03:01.090Z,2.83
2024-02-20T17:05:29.882Z,2.30
2024-02-20T17:07:58.784Z,2.70
2024-02-20T17:10:27.662Z,4.63
2024-02-20T17:12:56.310Z,3.88
2024-02-20T17:15:24.990Z,3.30
2024-02-20T17:17:53.767Z,3.05
2024-02-20T17:20:22.519Z,3.42
2024-02-20T17:22:52.623Z,3.03
2024-02-20T17:25:23.301Z,2.85
2024-02-20T17:27:52.207Z,1.90
2024-02-20T17:30:21.172Z,3.15
2024-02-20T17:32:51.782Z,2.05
2024-02-20T17:35:22.088Z,2.75
2024-02-20T17:37:50.961Z,3.60
2024-02-20T17:40:19.898Z,3.35
2024-02-20T17:42:48.625Z,3.40
2024-02-20T17:45:24.007Z,2.78
2024-02-20T17:47:54.368Z,2.13
2024-02-20T17:50:23.111Z,2.30
2024-02-20T17:52:51.987Z,2.17
2024-02-20T17:55:21.236Z,3.00
2024-02-20T17:57:49.858Z,2.75
2024-02-20T18:00:19.058Z,2.42
2024-02-20T18:02:47.618Z,3.10
2024-02-20T18:05:16.478Z,3.03
2024-02-20T18:07:45.478Z,2.97
2024-02-20T18:10:14.322Z,2.65
2024-02-20T18:12:42.989Z,2.60
2024-02-20T18:15:12.278Z,3.10
2024-02-20T18:17:41.354Z,3.33
2024-02-20T18:20:10.410Z,3.38
2024-02-20T18:22:39.014Z,3.25
2024-02-20T18:25:10.109Z,2.95
2024-02-20T18:27:40.385Z,2.55
2024-02-20T18:30:12.035Z,3.35
2024-02-20T18:32:40.771Z,2.45
2024-02-20T18:35:10.047Z,3.10
2024-02-20T18:37:38.849Z,2.97
2024-02-20T18:40:10.235Z,2.85
2024-02-20T18:42:39.552Z,3.55
2024-02-20T18:45:08.724Z,2.78
2024-02-20T18:47:38.306Z,3.47
2024-02-20T18:50:07.446Z,3.70
2024-02-20T18:52:38.180Z,3.30
2024-02-20T18:55:08.746Z,3.42
2024-02-20T18:57:37.637Z,2.83
2024-02-20T19:00:07.040Z,4.25
2024-02-20T19:02:37.354Z,3.28
2024-02-20T19:05:06.391Z,3.53
2024-02-20T19:07:38.141Z,3.42
2024-02-20T19:10:07.458Z,2.78
2024-02-20T19:12:36.176Z,3.53
2024-02-20T19:15:05.806Z,2.67
2024-02-20T19:17:34.691Z,2.63
2024-02-20T19:20:03.420Z,3.35
2024-02-20T19:22:34.835Z,3.30
2024-02-20T19:27:34.449Z,3.25
2024-02-20T19:30:03.042Z,2.72
2024-02-20T19:32:31.759Z,2.40
2024-02-20T19:35:00.684Z,2.85
2024-02-20T19:37:31.277Z,2.47
2024-02-20T19:39:59.918Z,3.17
2024-02-20T19:42:28.558Z,2.67
2024-02-20T19:44:57.202Z,2.80
2024-02-20T19:47:25.795Z,2.40
2024-02-20T19:49:54.716Z,2.30
2024-02-20T19:52:23.461Z,2.75
2024-02-20T19:54:52.101Z,2.38
2024-02-20T19:57:20.504Z,3.38
2024-02-20T19:59:50.901Z,2.60
2024-02-20T20:02:20.208Z,2.47
2024-02-20T20:04:49.090Z,3.33
2024-02-20T20:07:17.914Z,3.13
2024-02-20T20:09:46.574Z,3.42
2024-02-20T20:12:15.301Z,2.88
2024-02-20T20:14:43.925Z,2.58
2024-02-20T20:17:12.570Z,3.13
2024-02-20T20:19:42.078Z,2.72
2024-02-20T20:22:11.051Z,2.80
2024-02-20T20:24:41.554Z,3.42
2024-02-20T20:27:10.122Z,3.00
2024-02-20T20:29:38.658Z,3.00
2024-02-20T20:32:07.075Z,2.88
2024-02-20T20:34:35.671Z,3.00
2024-02-20T20:37:04.719Z,2.75
2024-02-20T20:39:33.368Z,2.85
2024-02-20T20:42:01.763Z,2.72
2024-02-20T20:44:30.319Z,2.55
2024-02-20T20:46:59.065Z,2.42
2024-02-20T20:49:27.728Z,3.30
2024-02-20T20:51:56.454Z,3.50
2024-02-20T20:54:25.143Z,3.10
2024-02-20T20:56:54.162Z,3.25
2024-02-20T20:59:24.707Z,3.60
2024-02-20T21:01:54.707Z,2.75
2024-02-20T21:04:23.666Z,3.22
2024-02-20T21:06:52.461Z,3.15
2024-02-20T21:09:21.402Z,3.13
2024-02-20T21:11:50.851Z,3.33
2024-02-20T21:14:19.855Z,3.30
2024-02-20T21:16:48.643Z,3.08
2024-02-20T21:19:17.702Z,3.08
2024-02-20T21:21:46.480Z,3.22
2024-02-20T21:24:15.033Z,2.85
2024-02-20T21:26:43.783Z,3.10
2024-02-20T21:29:13.387Z,3.00
2024-02-20T21:31:42.312Z,3.13
2024-02-20T21:34:11.289Z,2.58
2024-02-20T21:36:40.020Z,3.55
2024-02-20T21:39:09.337Z,3.25
2024-02-20T21:41:41.165Z,3.53
2024-02-20T21:44:10.744Z,3.05
2024-02-20T21:46:39.500Z,3.05
2024-02-20T21:49:08.303Z,2.80
2024-02-20T21:51:37.259Z,3.45
2024-02-20T21:54:05.922Z,3.33
2024-02-20T21:56:36.313Z,3.55
2024-02-20T21:59:04.982Z,3.15
2024-02-20T22:01:33.756Z,3.35
2024-02-20T22:04:02.381Z,3.22
2024-02-20T22:06:32.021Z,3.25
2024-02-20T22:09:00.628Z,3.65
2024-02-20T22:11:28.706Z,3.30
2024-02-20T22:13:57.593Z,3.65
2024-02-20T22:16:26.516Z,3.17
2024-02-20T22:18:55.234Z,3.40
2024-02-20T22:21:26.640Z,3.45
2024-02-20T22:23:55.219Z,3.22
2024-02-20T22:26:23.910Z,3.42
2024-02-20T22:28:52.581Z,4.05
2024-02-20T22:31:21.200Z,3.50
2024-02-20T22:33:49.996Z,3.70
2024-02-20T22:36:19.707Z,3.10
2024-02-20T22:38:48.451Z,3.50
2024-02-20T22:41:19.205Z,3.33
2024-02-20T22:43:49.032Z,2.88
2024-02-20T22:46:17.900Z,3.00
2024-02-20T22:48:49.603Z,3.20
2024-02-20T22:51:18.656Z,2.75
2024-02-20T22:53:47.216Z,2.42
2024-02-20T22:56:16.169Z,2.95
2024-02-20T22:58:44.745Z,2.67
2024-02-20T23:01:13.527Z,2.88
2024-02-20T23:03:42.449Z,2.40
2024-02-20T23:06:11.027Z,3.17
2024-02-20T23:08:39.047Z,2.65
2024-02-20T23:11:09.762Z,3.20
2024-02-20T23:13:38.484Z,2.88
2024-02-20T23:16:07.905Z,3.00
2024-02-20T23:18:37.031Z,3.10
2024-02-20T23:21:06.190Z,2.83
2024-02-20T23:23:34.977Z,3.80
2024-02-20T23:26:03.623Z,3.58
2024-02-20T23:28:32.249Z,3.00
2024-02-20T23:31:00.856Z,3.20
2024-02-20T23:33:29.784Z,3.75
2024-02-20T23:35:58.514Z,3.08
2024-02-20T23:38:27.073Z,3.92
2024-02-20T23:40:56.564Z,3.10
2024-02-20T23:43:25.247Z,3.45
2024-02-20T23:45:53.897Z,2.97
2024-02-20T23:48:22.587Z,3.70
2024-02-20T23:50:51.271Z,2.75
2024-02-20T23:53:19.846Z,3.35
2024-02-20T23:55:48.490Z,3.03
2024-02-20T23:58:17.141Z,3.22
